sensor_id;sensor_type;location;lat;lon;timestamp;P1;durP1;ratioP1;P2;durP2;ratioP2
10687;SDS011;5392;42.688;23.298;2023-04-24T00:01:07;3.47;;;3.25;;
10687;SDS011;5392;42.688;23.298;2023-04-24T00:03:35;6.82;;;4.10;;
10687;SDS011;5392;42.688;23.298;2023-04-24T00:06:02;3.25;;;3.05;;
10687;SDS011;5392;42.688;23.298;2023-04-24T00:08:29;3.72;;;3.42;;
10687;SDS011;5392;42.688;23.298;2023-04-24T00:10:56;5.43;;;3.55;;
10687;SDS011;5392;42.688;23.298;2023-04-24T00:13:23;4.63;;;3.65;;
10687;SDS011;5392;42.688;23.298;2023-04-24T00:15:50;3.85;;;3.55;;
10687;SDS011;5392;42.688;23.298;2023-04-24T00:18:17;6.00;;;3.33;;
10687;SDS011;5392;42.688;23.298;2023-04-24T00:20:44;8.23;;;3.08;;
10687;SDS011;5392;42.688;23.298;2023-04-24T00:23:10;7.45;;;4.35;;
10687;SDS011;5392;42.688;23.298;2023-04-24T00:25:38;5.20;;;3.30;;
10687;SDS011;5392;42.688;23.298;2023-04-24T00:28:05;5.40;;;2.53;;
10687;SDS011;5392;42.688;23.298;2023-04-24T00:30:32;5.20;;;1.92;;
10687;SDS011;5392;42.688;23.298;2023-04-24T00:32:59;2.38;;;2.13;;
10687;SDS011;5392;42.688;23.298;2023-04-24T00:35:26;4.93;;;3.40;;
10687;SDS011;5392;42.688;23.298;2023-04-24T00:37:53;4.53;;;2.42;;
10687;SDS011;5392;42.688;23.298;2023-04-24T00:40:20;2.67;;;1.88;;
10687;SDS011;5392;42.688;23.298;2023-04-24T00:42:47;5.20;;;2.33;;
10687;SDS011;5392;42.688;23.298;2023-04-24T00:45:14;4.55;;;2.10;;
10687;SDS011;5392;42.688;23.298;2023-04-24T00:47:41;2.85;;;2.42;;
10687;SDS011;5392;42.688;23.298;2023-04-24T00:50:08;2.28;;;2.17;;
10687;SDS011;5392;42.688;23.298;2023-04-24T00:52:35;3.33;;;1.50;;
10687;SDS011;5392;42.688;23.298;2023-04-24T00:55:02;1.65;;;1.30;;
10687;SDS011;5392;42.688;23.298;2023-04-24T00:57:29;1.65;;;1.52;;
10687;SDS011;5392;42.688;23.298;2023-04-24T00:59:57;2.38;;;1.27;;
10687;SDS011;5392;42.688;23.298;2023-04-24T01:02:24;3.15;;;1.42;;
10687;SDS011;5392;42.688;23.298;2023-04-24T01:04:52;4.18;;;1.30;;
10687;SDS011;5392;42.688;23.298;2023-04-24T01:07:21;2.35;;;1.45;;
10687;SDS011;5392;42.688;23.298;2023-04-24T01:09:48;1.83;;;1.58;;
10687;SDS011;5392;42.688;23.298;2023-04-24T01:12:17;1.48;;;1.38;;
10687;SDS011;5392;42.688;23.298;2023-04-24T01:14:45;2.00;;;1.98;;
10687;SDS011;5392;42.688;23.298;2023-04-24T01:17:12;3.42;;;1.42;;
10687;SDS011;5392;42.688;23.298;2023-04-24T01:19:39;5.47;;;1.85;;
10687;SDS011;5392;42.688;23.298;2023-04-24T01:22:08;1.83;;;1.70;;
10687;SDS011;5392;42.688;23.298;2023-04-24T01:24:38;2.05;;;1.92;;
10687;SDS011;5392;42.688;23.298;2023-04-24T01:27:05;1.48;;;1.40;;
10687;SDS011;5392;42.688;23.298;2023-04-24T01:29:32;3.22;;;1.80;;
10687;SDS011;5392;42.688;23.298;2023-04-24T01:32:00;2.00;;;1.90;;
10687;SDS011;5392;42.688;23.298;2023-04-24T01:34:27;2.03;;;1.80;;
10687;SDS011;5392;42.688;23.298;2023-04-24T01:36:54;2.70;;;1.80;;
10687;SDS011;5392;42.688;23.298;2023-04-24T01:39:21;1.90;;;1.80;;
10687;SDS011;5392;42.688;23.298;2023-04-24T01:41:49;3.25;;;1.63;;
10687;SDS011;5392;42.688;23.298;2023-04-24T01:44:16;2.67;;;1.90;;
10687;SDS011;5392;42.688;23.298;2023-04-24T01:46:44;3.83;;;1.77;;
10687;SDS011;5392;42.688;23.298;2023-04-24T01:49:11;4.88;;;2.05;;
10687;SDS011;5392;42.688;23.298;2023-04-24T01:51:38;3.70;;;2.70;;
10687;SDS011;5392;42.688;23.298;2023-04-24T01:54:04;2.80;;;2.70;;
10687;SDS011;5392;42.688;23.298;2023-04-24T01:56:35;2.92;;;2.00;;
10687;SDS011;5392;42.688;23.298;2023-04-24T01:59:04;3.13;;;2.47;;
10687;SDS011;5392;42.688;23.298;2023-04-24T02:01:35;2.45;;;2.25;;
10687;SDS011;5392;42.688;23.298;2023-04-24T02:04:05;4.18;;;2.70;;
10687;SDS011;5392;42.688;23.298;2023-04-24T02:06:33;5.28;;;2.70;;
10687;SDS011;5392;42.688;23.298;2023-04-24T02:09:00;2.40;;;2.20;;
10687;SDS011;5392;42.688;23.298;2023-04-24T02:11:27;2.58;;;2.22;;
10687;SDS011;5392;42.688;23.298;2023-04-24T02:13:54;2.88;;;2.40;;
10687;SDS011;5392;42.688;23.298;2023-04-24T02:16:21;7.82;;;2.53;;
10687;SDS011;5392;42.688;23.298;2023-04-24T02:18:48;4.78;;;2.78;;
10687;SDS011;5392;42.688;23.298;2023-04-24T02:21:15;4.53;;;2.63;;
10687;SDS011;5392;42.688;23.298;2023-04-24T02:23:42;4.07;;;2.60;;
10687;SDS011;5392;42.688;23.298;2023-04-24T02:26:08;2.40;;;2.30;;
10687;SDS011;5392;42.688;23.298;2023-04-24T02:28:35;3.80;;;2.72;;
10687;SDS011;5392;42.688;23.298;2023-04-24T02:31:02;2.42;;;2.20;;
10687;SDS011;5392;42.688;23.298;2023-04-24T02:33:29;2.67;;;2.47;;
10687;SDS011;5392;42.688;23.298;2023-04-24T02:35:56;2.67;;;2.47;;
10687;SDS011;5392;42.688;23.298;2023-04-24T02:38:22;4.20;;;2.50;;
10687;SDS011;5392;42.688;23.298;2023-04-24T02:40:49;3.83;;;2.58;;
10687;SDS011;5392;42.688;23.298;2023-04-24T02:43:16;4.10;;;2.97;;
10687;SDS011;5392;42.688;23.298;2023-04-24T02:45:43;3.28;;;2.70;;
10687;SDS011;5392;42.688;23.298;2023-04-24T02:48:09;3.50;;;3.17;;
10687;SDS011;5392;42.688;23.298;2023-04-24T02:50:36;3.78;;;3.47;;
10687;SDS011;5392;42.688;23.298;2023-04-24T02:53:03;5.93;;;3.35;;
10687;SDS011;5392;42.688;23.298;2023-04-24T02:55:30;3.90;;;3.70;;
10687;SDS011;5392;42.688;23.298;2023-04-24T02:57:56;3.95;;;3.75;;
10687;SDS011;5392;42.688;23.298;2023-04-24T03:00:23;5.45;;;3.83;;
10687;SDS011;5392;42.688;23.298;2023-04-24T03:02:50;4.97;;;4.00;;
10687;SDS011;5392;42.688;23.298;2023-04-24T03:05:17;5.45;;;4.70;;
10687;SDS011;5392;42.688;23.298;2023-04-24T03:07:43;5.88;;;4.60;;
10687;SDS011;5392;42.688;23.298;2023-04-24T03:10:11;5.25;;;3.65;;
10687;SDS011;5392;42.688;23.298;2023-04-24T03:12:38;9.27;;;4.18;;
10687;SDS011;5392;42.688;23.298;2023-04-24T03:15:05;7.22;;;4.50;;
10687;SDS011;5392;42.688;23.298;2023-04-24T03:17:32;5.55;;;4.95;;
10687;SDS011;5392;42.688;23.298;2023-04-24T03:19:59;5.18;;;4.70;;
10687;SDS011;5392;42.688;23.298;2023-04-24T03:22:25;5.85;;;5.35;;
10687;SDS011;5392;42.688;23.298;2023-04-24T03:24:52;9.48;;;5.50;;
10687;SDS011;5392;42.688;23.298;2023-04-24T03:27:19;7.60;;;6.10;;
10687;SDS011;5392;42.688;23.298;2023-04-24T03:29:45;13.88;;;6.90;;
10687;SDS011;5392;42.688;23.298;2023-04-24T03:32:12;12.40;;;7.60;;
10687;SDS011;5392;42.688;23.298;2023-04-24T03:34:39;11.98;;;7.47;;
10687;SDS011;5392;42.688;23.298;2023-04-24T03:37:05;7.97;;;7.18;;
10687;SDS011;5392;42.688;23.298;2023-04-24T03:39:32;13.73;;;7.70;;
10687;SDS011;5392;42.688;23.298;2023-04-24T03:41:59;12.52;;;7.97;;
10687;SDS011;5392;42.688;23.298;2023-04-24T03:44:26;8.77;;;7.03;;
10687;SDS011;5392;42.688;23.298;2023-04-24T03:46:53;11.93;;;7.38;;
10687;SDS011;5392;42.688;23.298;2023-04-24T03:49:20;8.05;;;7.35;;
10687;SDS011;5392;42.688;23.298;2023-04-24T03:51:46;11.18;;;7.95;;
10687;SDS011;5392;42.688;23.298;2023-04-24T03:54:13;13.40;;;7.63;;
10687;SDS011;5392;42.688;23.298;2023-04-24T03:56:40;18.65;;;8.18;;
10687;SDS011;5392;42.688;23.298;2023-04-24T03:59:07;8.75;;;6.80;;
10687;SDS011;5392;42.688;23.298;2023-04-24T04:01:33;12.77;;;6.85;;
10687;SDS011;5392;42.688;23.298;2023-04-24T04:04:03;8.30;;;6.03;;
10687;SDS011;5392;42.688;23.298;2023-04-24T04:06:30;11.10;;;5.57;;
10687;SDS011;5392;42.688;23.298;2023-04-24T04:08:58;9.40;;;5.57;;
10687;SDS011;5392;42.688;23.298;2023-04-24T04:11:25;16.95;;;6.78;;
10687;SDS011;5392;42.688;23.298;2023-04-24T04:13:51;7.22;;;5.60;;
10687;SDS011;5392;42.688;23.298;2023-04-24T04:16:18;21.13;;;6.28;;
10687;SDS011;5392;42.688;23.298;2023-04-24T04:18:45;11.40;;;5.70;;
10687;SDS011;5392;42.688;23.298;2023-04-24T04:21:12;13.07;;;5.93;;
10687;SDS011;5392;42.688;23.298;2023-04-24T04:23:39;12.68;;;6.60;;
10687;SDS011;5392;42.688;23.298;2023-04-24T04:26:06;4.65;;;3.35;;
10687;SDS011;5392;42.688;23.298;2023-04-24T04:28:34;11.52;;;3.70;;
10687;SDS011;5392;42.688;23.298;2023-04-24T04:31:01;6.85;;;3.85;;
10687;SDS011;5392;42.688;23.298;2023-04-24T04:33:28;5.97;;;2.00;;
10687;SDS011;5392;42.688;23.298;2023-04-24T04:35:55;1.98;;;1.83;;
10687;SDS011;5392;42.688;23.298;2023-04-24T04:38:25;1.95;;;1.45;;
10687;SDS011;5392;42.688;23.298;2023-04-24T04:40:53;5.20;;;1.52;;
10687;SDS011;5392;42.688;23.298;2023-04-24T04:43:19;2.83;;;1.50;;
10687;SDS011;5392;42.688;23.298;2023-04-24T04:45:46;5.95;;;1.67;;
10687;SDS011;5392;42.688;23.298;2023-04-24T04:48:14;1.52;;;1.40;;
10687;SDS011;5392;42.688;23.298;2023-04-24T04:50:44;4.22;;;2.20;;
10687;SDS011;5392;42.688;23.298;2023-04-24T04:53:11;4.45;;;2.55;;
10687;SDS011;5392;42.688;23.298;2023-04-24T04:55:38;7.53;;;2.55;;
10687;SDS011;5392;42.688;23.298;2023-04-24T04:58:05;9.38;;;2.50;;
10687;SDS011;5392;42.688;23.298;2023-04-24T05:00:31;1.58;;;1.45;;
10687;SDS011;5392;42.688;23.298;2023-04-24T05:03:01;8.00;;;2.95;;
10687;SDS011;5392;42.688;23.298;2023-04-24T05:05:45;7.38;;;3.17;;
10687;SDS011;5392;42.688;23.298;2023-04-24T05:08:12;2.17;;;2.08;;
10687;SDS011;5392;42.688;23.298;2023-04-24T05:10:51;2.47;;;2.20;;
10687;SDS011;5392;42.688;23.298;2023-04-24T05:13:17;2.78;;;2.05;;
10687;SDS011;5392;42.688;23.298;2023-04-24T05:15:57;5.13;;;2.45;;
10687;SDS011;5392;42.688;23.298;2023-04-24T05:18:24;7.47;;;3.60;;
10687;SDS011;5392;42.688;23.298;2023-04-24T05:20:51;4.13;;;2.47;;
10687;SDS011;5392;42.688;23.298;2023-04-24T05:23:17;6.30;;;2.70;;
10687;SDS011;5392;42.688;23.298;2023-04-24T05:25:44;6.38;;;4.07;;
10687;SDS011;5392;42.688;23.298;2023-04-24T05:28:12;11.93;;;4.68;;
10687;SDS011;5392;42.688;23.298;2023-04-24T05:30:39;6.43;;;3.55;;
10687;SDS011;5392;42.688;23.298;2023-04-24T05:33:06;4.03;;;3.45;;
10687;SDS011;5392;42.688;23.298;2023-04-24T05:35:33;5.70;;;3.13;;
10687;SDS011;5392;42.688;23.298;2023-04-24T05:37:59;3.97;;;2.97;;
10687;SDS011;5392;42.688;23.298;2023-04-24T05:40:26;5.85;;;3.83;;
10687;SDS011;5392;42.688;23.298;2023-04-24T05:42:53;3.83;;;3.20;;
10687;SDS011;5392;42.688;23.298;2023-04-24T05:45:19;6.25;;;3.13;;
10687;SDS011;5392;42.688;23.298;2023-04-24T05:47:46;3.65;;;3.42;;
10687;SDS011;5392;42.688;23.298;2023-04-24T05:50:13;4.35;;;3.33;;
10687;SDS011;5392;42.688;23.298;2023-04-24T05:52:40;4.50;;;3.72;;
10687;SDS011;5392;42.688;23.298;2023-04-24T05:55:06;5.18;;;3.47;;
10687;SDS011;5392;42.688;23.298;2023-04-24T05:57:33;4.32;;;3.40;;
10687;SDS011;5392;42.688;23.298;2023-04-24T06:00:00;4.60;;;3.58;;
10687;SDS011;5392;42.688;23.298;2023-04-24T06:02:27;9.63;;;3.70;;
10687;SDS011;5392;42.688;23.298;2023-04-24T06:04:58;11.88;;;5.65;;
10687;SDS011;5392;42.688;23.298;2023-04-24T06:07:27;5.32;;;3.60;;
10687;SDS011;5392;42.688;23.298;2023-04-24T06:09:53;14.80;;;4.85;;
10687;SDS011;5392;42.688;23.298;2023-04-24T06:12:20;6.57;;;4.00;;
10687;SDS011;5392;42.688;23.298;2023-04-24T06:14:47;8.68;;;4.47;;
10687;SDS011;5392;42.688;23.298;2023-04-24T06:17:14;4.22;;;3.22;;
10687;SDS011;5392;42.688;23.298;2023-04-24T06:19:41;7.18;;;4.03;;
10687;SDS011;5392;42.688;23.298;2023-04-24T06:22:08;8.23;;;3.72;;
10687;SDS011;5392;42.688;23.298;2023-04-24T06:24:36;9.10;;;4.40;;
10687;SDS011;5392;42.688;23.298;2023-04-24T06:27:03;5.20;;;4.10;;
10687;SDS011;5392;42.688;23.298;2023-04-24T06:29:30;10.02;;;5.45;;
10687;SDS011;5392;42.688;23.298;2023-04-24T06:31:56;11.18;;;4.10;;
10687;SDS011;5392;42.688;23.298;2023-04-24T06:34:23;7.47;;;4.75;;
10687;SDS011;5392;42.688;23.298;2023-04-24T06:36:50;6.28;;;4.57;;
10687;SDS011;5392;42.688;23.298;2023-04-24T06:39:17;8.10;;;4.25;;
10687;SDS011;5392;42.688;23.298;2023-04-24T06:41:43;4.55;;;3.72;;
10687;SDS011;5392;42.688;23.298;2023-04-24T06:44:10;5.88;;;3.97;;
10687;SDS011;5392;42.688;23.298;2023-04-24T06:46:36;5.35;;;4.80;;
10687;SDS011;5392;42.688;23.298;2023-04-24T06:49:06;13.95;;;5.80;;
10687;SDS011;5392;42.688;23.298;2023-04-24T06:51:33;10.13;;;4.30;;
10687;SDS011;5392;42.688;23.298;2023-04-24T06:54:00;5.10;;;4.60;;
10687;SDS011;5392;42.688;23.298;2023-04-24T06:56:26;7.15;;;4.55;;
10687;SDS011;5392;42.688;23.298;2023-04-24T06:58:55;7.85;;;4.43;;
10687;SDS011;5392;42.688;23.298;2023-04-24T07:01:22;7.22;;;3.90;;
10687;SDS011;5392;42.688;23.298;2023-04-24T07:03:49;5.25;;;4.05;;
10687;SDS011;5392;42.688;23.298;2023-04-24T07:06:16;4.85;;;4.43;;
10687;SDS011;5392;42.688;23.298;2023-04-24T07:08:44;7.45;;;4.22;;
10687;SDS011;5392;42.688;23.298;2023-04-24T07:11:11;7.90;;;4.47;;
10687;SDS011;5392;42.688;23.298;2023-04-24T07:13:38;9.65;;;4.30;;
10687;SDS011;5392;42.688;23.298;2023-04-24T07:16:08;5.03;;;4.50;;
10687;SDS011;5392;42.688;23.298;2023-04-24T07:18:36;5.97;;;4.00;;
10687;SDS011;5392;42.688;23.298;2023-04-24T07:21:03;10.13;;;4.32;;
10687;SDS011;5392;42.688;23.298;2023-04-24T07:23:30;8.20;;;4.43;;
10687;SDS011;5392;42.688;23.298;2023-04-24T07:25:57;4.60;;;4.20;;
10687;SDS011;5392;42.688;23.298;2023-04-24T07:28:24;7.82;;;5.03;;
10687;SDS011;5392;42.688;23.298;2023-04-24T07:30:51;5.32;;;4.80;;
10687;SDS011;5392;42.688;23.298;2023-04-24T07:33:20;5.55;;;5.05;;
10687;SDS011;5392;42.688;23.298;2023-04-24T07:35:47;6.18;;;5.50;;
10687;SDS011;5392;42.688;23.298;2023-04-24T07:38:14;7.65;;;5.10;;
10687;SDS011;5392;42.688;23.298;2023-04-24T07:40:41;5.72;;;5.25;;
10687;SDS011;5392;42.688;23.298;2023-04-24T07:43:08;5.53;;;4.97;;
10687;SDS011;5392;42.688;23.298;2023-04-24T07:45:34;7.05;;;5.15;;
10687;SDS011;5392;42.688;23.298;2023-04-24T07:48:03;6.50;;;4.70;;
10687;SDS011;5392;42.688;23.298;2023-04-24T07:50:31;5.00;;;3.38;;
10687;SDS011;5392;42.688;23.298;2023-04-24T07:52:58;5.13;;;4.10;;
10687;SDS011;5392;42.688;23.298;2023-04-24T07:55:25;9.98;;;5.63;;
10687;SDS011;5392;42.688;23.298;2023-04-24T07:57:53;5.30;;;4.32;;
10687;SDS011;5392;42.688;23.298;2023-04-24T08:00:20;5.25;;;4.65;;
10687;SDS011;5392;42.688;23.298;2023-04-24T08:02:47;8.93;;;4.78;;
10687;SDS011;5392;42.688;23.298;2023-04-24T08:05:14;5.68;;;4.55;;
10687;SDS011;5392;42.688;23.298;2023-04-24T08:07:41;5.28;;;4.15;;
10687;SDS011;5392;42.688;23.298;2023-04-24T08:10:12;11.65;;;4.32;;
10687;SDS011;5392;42.688;23.298;2023-04-24T08:12:39;4.05;;;3.75;;
10687;SDS011;5392;42.688;23.298;2023-04-24T08:15:07;9.38;;;3.85;;
10687;SDS011;5392;42.688;23.298;2023-04-24T08:17:34;5.78;;;3.67;;
10687;SDS011;5392;42.688;23.298;2023-04-24T08:20:05;4.00;;;3.60;;
10687;SDS011;5392;42.688;23.298;2023-04-24T08:22:36;4.07;;;3.72;;
10687;SDS011;5392;42.688;23.298;2023-04-24T08:25:03;5.80;;;3.40;;
10687;SDS011;5392;42.688;23.298;2023-04-24T08:27:30;3.38;;;3.10;;
10687;SDS011;5392;42.688;23.298;2023-04-24T08:29:56;3.97;;;2.88;;
10687;SDS011;5392;42.688;23.298;2023-04-24T08:32:23;4.50;;;3.35;;
10687;SDS011;5392;42.688;23.298;2023-04-24T08:34:50;7.88;;;3.50;;
10687;SDS011;5392;42.688;23.298;2023-04-24T08:37:18;6.05;;;4.45;;
10687;SDS011;5392;42.688;23.298;2023-04-24T08:39:45;3.83;;;3.53;;
10687;SDS011;5392;42.688;23.298;2023-04-24T08:42:12;5.47;;;3.03;;
10687;SDS011;5392;42.688;23.298;2023-04-24T08:44:41;3.45;;;3.15;;
10687;SDS011;5392;42.688;23.298;2023-04-24T08:47:08;3.97;;;3.53;;
10687;SDS011;5392;42.688;23.298;2023-04-24T08:49:35;4.97;;;3.72;;
10687;SDS011;5392;42.688;23.298;2023-04-24T08:52:07;8.07;;;4.10;;
10687;SDS011;5392;42.688;23.298;2023-04-24T08:54:34;7.40;;;3.67;;
10687;SDS011;5392;42.688;23.298;2023-04-24T08:57:02;4.82;;;3.47;;
10687;SDS011;5392;42.688;23.298;2023-04-24T08:59:30;5.97;;;3.70;;
10687;SDS011;5392;42.688;23.298;2023-04-24T09:01:57;4.25;;;3.88;;
10687;SDS011;5392;42.688;23.298;2023-04-24T09:04:24;5.78;;;3.35;;
10687;SDS011;5392;42.688;23.298;2023-04-24T09:06:54;3.38;;;3.17;;
10687;SDS011;5392;42.688;23.298;2023-04-24T09:09:22;4.93;;;3.30;;
10687;SDS011;5392;42.688;23.298;2023-04-24T09:11:50;3.55;;;3.25;;
10687;SDS011;5392;42.688;23.298;2023-04-24T09:14:20;4.43;;;3.55;;
10687;SDS011;5392;42.688;23.298;2023-04-24T09:16:47;4.13;;;3.17;;
10687;SDS011;5392;42.688;23.298;2023-04-24T09:19:14;4.18;;;3.35;;
10687;SDS011;5392;42.688;23.298;2023-04-24T09:21:41;3.50;;;2.67;;
10687;SDS011;5392;42.688;23.298;2023-04-24T09:24:17;4.20;;;3.00;;
10687;SDS011;5392;42.688;23.298;2023-04-24T09:26:47;2.88;;;2.67;;
10687;SDS011;5392;42.688;23.298;2023-04-24T09:29:16;2.97;;;2.78;;
10687;SDS011;5392;42.688;23.298;2023-04-24T09:31:44;3.17;;;2.88;;
10687;SDS011;5392;42.688;23.298;2023-04-24T09:34:12;5.82;;;2.67;;
10687;SDS011;5392;42.688;23.298;2023-04-24T09:36:40;4.65;;;2.85;;
10687;SDS011;5392;42.688;23.298;2023-04-24T09:39:10;2.67;;;2.47;;
10687;SDS011;5392;42.688;23.298;2023-04-24T09:41:48;3.17;;;2.70;;
10687;SDS011;5392;42.688;23.298;2023-04-24T09:44:25;1.77;;;1.67;;
10687;SDS011;5392;42.688;23.298;2023-04-24T09:49:27;3.50;;;2.17;;
10687;SDS011;5392;42.688;23.298;2023-04-24T09:52:05;4.30;;;2.30;;
10687;SDS011;5392;42.688;23.298;2023-04-24T09:54:33;8.05;;;2.47;;
10687;SDS011;5392;42.688;23.298;2023-04-24T09:57:00;1.40;;;1.40;;
10687;SDS011;5392;42.688;23.298;2023-04-24T09:59:27;3.53;;;2.47;;
10687;SDS011;5392;42.688;23.298;2023-04-24T10:01:53;2.92;;;1.60;;
10687;SDS011;5392;42.688;23.298;2023-04-24T10:04:24;3.42;;;1.90;;
10687;SDS011;5392;42.688;23.298;2023-04-24T10:06:53;2.22;;;1.75;;
10687;SDS011;5392;42.688;23.298;2023-04-24T10:09:23;3.17;;;1.73;;
10687;SDS011;5392;42.688;23.298;2023-04-24T10:11:52;2.30;;;2.20;;
10687;SDS011;5392;42.688;23.298;2023-04-24T10:14:21;7.00;;;1.55;;
10687;SDS011;5392;42.688;23.298;2023-04-24T10:16:49;2.33;;;1.65;;
10687;SDS011;5392;42.688;23.298;2023-04-24T10:19:19;1.58;;;1.23;;
10687;SDS011;5392;42.688;23.298;2023-04-24T10:21:46;3.30;;;2.08;;
10687;SDS011;5392;42.688;23.298;2023-04-24T10:24:14;7.38;;;2.22;;
10687;SDS011;5392;42.688;23.298;2023-04-24T10:26:42;2.70;;;1.67;;
10687;SDS011;5392;42.688;23.298;2023-04-24T10:29:10;4.07;;;1.33;;
10687;SDS011;5392;42.688;23.298;2023-04-24T10:31:39;4.13;;;1.77;;
10687;SDS011;5392;42.688;23.298;2023-04-24T10:34:07;2.42;;;1.60;;
10687;SDS011;5392;42.688;23.298;2023-04-24T10:36:36;1.83;;;1.65;;
10687;SDS011;5392;42.688;23.298;2023-04-24T10:39:08;5.18;;;1.33;;
10687;SDS011;5392;42.688;23.298;2023-04-24T10:41:38;5.35;;;1.60;;
10687;SDS011;5392;42.688;23.298;2023-04-24T10:44:05;3.85;;;1.10;;
10687;SDS011;5392;42.688;23.298;2023-04-24T10:46:36;1.85;;;1.10;;
10687;SDS011;5392;42.688;23.298;2023-04-24T10:49:04;2.63;;;0.80;;
10687;SDS011;5392;42.688;23.298;2023-04-24T10:59:49;2.33;;;1.60;;
10687;SDS011;5392;42.688;23.298;2023-04-24T11:02:36;1.98;;;1.45;;
10687;SDS011;5392;42.688;23.298;2023-04-24T11:05:04;3.25;;;2.10;;
10687;SDS011;5392;42.688;23.298;2023-04-24T11:08:36;3.65;;;1.13;;
10687;SDS011;5392;42.688;23.298;2023-04-24T11:10:43;3.58;;;1.60;;
10687;SDS011;5392;42.688;23.298;2023-04-24T11:13:14;1.60;;;1.50;;
10687;SDS011;5392;42.688;23.298;2023-04-24T11:18:41;2.45;;;1.33;;
10687;SDS011;5392;42.688;23.298;2023-04-24T11:21:12;11.02;;;2.20;;
10687;SDS011;5392;42.688;23.298;2023-04-24T11:23:39;2.95;;;1.48;;
10687;SDS011;5392;42.688;23.298;2023-04-24T11:26:17;7.55;;;2.92;;
10687;SDS011;5392;42.688;23.298;2023-04-24T11:28:50;8.85;;;4.30;;
10687;SDS011;5392;42.688;23.298;2023-04-24T11:34:14;6.53;;;3.63;;
10687;SDS011;5392;42.688;23.298;2023-04-24T11:36:43;8.02;;;3.10;;
10687;SDS011;5392;42.688;23.298;2023-04-24T11:39:10;3.25;;;2.13;;
10687;SDS011;5392;42.688;23.298;2023-04-24T11:41:37;2.30;;;2.10;;
10687;SDS011;5392;42.688;23.298;2023-04-24T11:44:07;7.55;;;2.63;;
10687;SDS011;5392;42.688;23.298;2023-04-24T11:46:35;2.22;;;2.13;;
10687;SDS011;5392;42.688;23.298;2023-04-24T11:49:04;2.47;;;1.65;;
10687;SDS011;5392;42.688;23.298;2023-04-24T11:51:31;3.25;;;1.30;;
10687;SDS011;5392;42.688;23.298;2023-04-24T11:54:16;7.20;;;2.10;;
10687;SDS011;5392;42.688;23.298;2023-04-24T11:56:46;13.50;;;2.15;;
10687;SDS011;5392;42.688;23.298;2023-04-24T11:59:14;8.38;;;1.92;;
10687;SDS011;5392;42.688;23.298;2023-04-24T12:01:47;0.90;;;0.90;;
10687;SDS011;5392;42.688;23.298;2023-04-24T12:04:16;1.70;;;0.90;;
10687;SDS011;5392;42.688;23.298;2023-04-24T12:07:00;0.90;;;0.90;;
10687;SDS011;5392;42.688;23.298;2023-04-24T12:09:27;2.22;;;1.05;;
10687;SDS011;5392;42.688;23.298;2023-04-24T12:11:54;19.25;;;2.30;;
10687;SDS011;5392;42.688;23.298;2023-04-24T12:14:24;1.45;;;0.90;;
10687;SDS011;5392;42.688;23.298;2023-04-24T12:16:51;10.07;;;1.65;;
10687;SDS011;5392;42.688;23.298;2023-04-24T12:19:21;18.73;;;2.58;;
10687;SDS011;5392;42.688;23.298;2023-04-24T12:21:59;13.45;;;2.15;;
10687;SDS011;5392;42.688;23.298;2023-04-24T12:24:27;23.15;;;4.53;;
10687;SDS011;5392;42.688;23.298;2023-04-24T12:26:54;2.33;;;1.73;;
10687;SDS011;5392;42.688;23.298;2023-04-24T12:29:21;3.50;;;1.20;;
10687;SDS011;5392;42.688;23.298;2023-04-24T12:31:47;0.60;;;0.60;;
10687;SDS011;5392;42.688;23.298;2023-04-24T12:34:22;4.72;;;1.08;;
10687;SDS011;5392;42.688;23.298;2023-04-24T12:36:51;3.70;;;0.73;;
10687;SDS011;5392;42.688;23.298;2023-04-24T12:39:18;5.45;;;0.90;;
10687;SDS011;5392;42.688;23.298;2023-04-24T12:41:55;2.53;;;1.08;;
10687;SDS011;5392;42.688;23.298;2023-04-24T12:44:30;5.07;;;1.15;;
10687;SDS011;5392;42.688;23.298;2023-04-24T12:47:01;0.85;;;0.65;;
10687;SDS011;5392;42.688;23.298;2023-04-24T12:49:29;2.47;;;0.88;;
10687;SDS011;5392;42.688;23.298;2023-04-24T12:51:56;2.33;;;0.90;;
10687;SDS011;5392;42.688;23.298;2023-04-24T12:54:23;0.68;;;0.60;;
10687;SDS011;5392;42.688;23.298;2023-04-24T12:56:50;2.15;;;0.70;;
10687;SDS011;5392;42.688;23.298;2023-04-24T12:59:16;3.25;;;0.80;;
10687;SDS011;5392;42.688;23.298;2023-04-24T13:01:43;1.98;;;0.90;;
10687;SDS011;5392;42.688;23.298;2023-04-24T13:04:10;1.17;;;0.70;;
10687;SDS011;5392;42.688;23.298;2023-04-24T13:06:37;2.13;;;1.10;;
10687;SDS011;5392;42.688;23.298;2023-04-24T13:09:04;6.68;;;1.55;;
10687;SDS011;5392;42.688;23.298;2023-04-24T13:11:30;2.90;;;0.98;;
10687;SDS011;5392;42.688;23.298;2023-04-24T13:13:57;3.40;;;1.00;;
10687;SDS011;5392;42.688;23.298;2023-04-24T13:16:24;3.08;;;1.00;;
10687;SDS011;5392;42.688;23.298;2023-04-24T13:18:50;1.58;;;0.90;;
10687;SDS011;5392;42.688;23.298;2023-04-24T13:21:17;9.02;;;1.05;;
10687;SDS011;5392;42.688;23.298;2023-04-24T13:23:43;4.40;;;1.13;;
10687;SDS011;5392;42.688;23.298;2023-04-24T13:26:10;1.40;;;0.88;;
10687;SDS011;5392;42.688;23.298;2023-04-24T13:28:37;0.90;;;0.90;;
10687;SDS011;5392;42.688;23.298;2023-04-24T13:31:05;17.50;;;2.70;;
10687;SDS011;5392;42.688;23.298;2023-04-24T13:33:32;2.50;;;0.90;;
10687;SDS011;5392;42.688;23.298;2023-04-24T13:35:59;4.20;;;1.10;;
10687;SDS011;5392;42.688;23.298;2023-04-24T13:38:26;3.45;;;1.08;;
10687;SDS011;5392;42.688;23.298;2023-04-24T13:40:52;3.70;;;0.80;;
10687;SDS011;5392;42.688;23.298;2023-04-24T13:43:19;10.15;;;2.33;;
10687;SDS011;5392;42.688;23.298;2023-04-24T13:45:46;6.13;;;0.85;;
10687;SDS011;5392;42.688;23.298;2023-04-24T13:48:13;5.28;;;0.88;;
10687;SDS011;5392;42.688;23.298;2023-04-24T13:50:42;13.05;;;1.23;;
10687;SDS011;5392;42.688;23.298;2023-04-24T13:53:09;2.60;;;0.90;;
10687;SDS011;5392;42.688;23.298;2023-04-24T13:55:36;3.60;;;0.80;;
10687;SDS011;5392;42.688;23.298;2023-04-24T13:58:03;1.23;;;0.60;;
10687;SDS011;5392;42.688;23.298;2023-04-24T14:00:30;5.78;;;1.08;;
10687;SDS011;5392;42.688;23.298;2023-04-24T14:02:57;7.72;;;1.30;;
10687;SDS011;5392;42.688;23.298;2023-04-24T14:05:24;6.45;;;0.98;;
10687;SDS011;5392;42.688;23.298;2023-04-24T14:07:51;6.05;;;1.45;;
10687;SDS011;5392;42.688;23.298;2023-04-24T14:10:18;2.13;;;0.80;;
10687;SDS011;5392;42.688;23.298;2023-04-24T14:12:44;0.70;;;0.50;;
10687;SDS011;5392;42.688;23.298;2023-04-24T14:15:11;1.33;;;0.60;;
10687;SDS011;5392;42.688;23.298;2023-04-24T14:17:39;1.38;;;0.82;;
10687;SDS011;5392;42.688;23.298;2023-04-24T14:20:06;3.35;;;0.80;;
10687;SDS011;5392;42.688;23.298;2023-04-24T14:22:33;2.15;;;1.02;;
10687;SDS011;5392;42.688;23.298;2023-04-24T14:25:00;2.25;;;0.80;;
10687;SDS011;5392;42.688;23.298;2023-04-24T14:27:27;2.42;;;0.60;;
10687;SDS011;5392;42.688;23.298;2023-04-24T14:29:53;2.00;;;0.60;;
10687;SDS011;5392;42.688;23.298;2023-04-24T14:32:21;1.25;;;0.70;;
10687;SDS011;5392;42.688;23.298;2023-04-24T14:34:47;2.33;;;1.15;;
10687;SDS011;5392;42.688;23.298;2023-04-24T14:37:14;1.10;;;0.70;;
10687;SDS011;5392;42.688;23.298;2023-04-24T14:39:41;1.48;;;0.68;;
10687;SDS011;5392;42.688;23.298;2023-04-24T14:42:12;0.60;;;0.60;;
10687;SDS011;5392;42.688;23.298;2023-04-24T14:44:40;0.70;;;0.70;;
10687;SDS011;5392;42.688;23.298;2023-04-24T14:47:06;0.90;;;0.90;;
10687;SDS011;5392;42.688;23.298;2023-04-24T14:49:33;2.00;;;0.85;;
10687;SDS011;5392;42.688;23.298;2023-04-24T14:52:00;0.70;;;0.70;;
10687;SDS011;5392;42.688;23.298;2023-04-24T14:54:29;0.80;;;0.70;;
10687;SDS011;5392;42.688;23.298;2023-04-24T14:56:55;1.70;;;0.88;;
10687;SDS011;5392;42.688;23.298;2023-04-24T14:59:25;4.60;;;1.00;;
10687;SDS011;5392;42.688;23.298;2023-04-24T15:01:52;1.50;;;0.90;;
10687;SDS011;5392;42.688;23.298;2023-04-24T15:04:41;3.05;;;0.80;;
10687;SDS011;5392;42.688;23.298;2023-04-24T15:07:07;2.22;;;1.33;;